Time,TemperatureF,DewpointF,PressureIn,WindDirection,WindDirectionDegrees,WindSpeedMPH,WindSpeedGustMPH,Humidity,HourlyPrecipIn,Conditions,Clouds,dailyrainin,SoftwareType,DateUTC
2013-09-06 00:09:00,61.9,49.0,29.88,NNE,22,0.0,0.0,63,0.00,,,0.00,weatherlink.com 1.10,2013-09-06 06:09:00,
2013-09-06 00:24:00,61.7,49.0,29.88,NNE,22,0.0,0.0,63,0.00,,,0.00,weatherlink.com 1.10,2013-09-06 06:24:00,
2013-09-06 02:26:00,56.1,46.0,29.89,ENE,71,2.0,5.0,70,0.00,,,0.00,weatherlink.com 1.10,2013-09-06 08:26:00,
2013-09-06 02:38:00,55.7,47.0,29.89,ENE,73,0.0,0.0,72,0.00,,,0.00,weatherlink.com 1.10,2013-09-06 08:38:00,
2013-09-06 02:53:00,55.1,46.0,29.89,ENE,74,0.0,0.0,72,0.00,,,0.00,weatherlink.com 1.10,2013-09-06 08:53:00,
2013-09-06 08:30:00,60.4,49.0,29.93,NE,56,0.0,0.0,66,0.00,,,0.00,weatherlink.com 1.10,2013-09-06 14:30:00,
2013-09-06 08:39:00,59.3,49.0,29.93,NE,56,0.0,0.0,68,0.00,,,0.00,weatherlink.com 1.10,2013-09-06 14:39:00,
2013-09-06 12:04:00,77.5,51.0,29.86,SW,232,0.0,9.0,39,0.00,,,0.00,weatherlink.com 1.10,2013-09-06 18:04:00,
2013-09-06 12:09:00,77.8,51.0,29.85,WSW,239,0.0,9.0,39,0.00,,,0.00,weatherlink.com 1.10,2013-09-06 18:09:00,
2013-09-06 12:24:00,79.2,51.0,29.85,South,173,4.0,9.0,38,0.00,,,0.00,weatherlink.com 1.10,2013-09-06 18:24:00,
2013-09-06 12:40:00,80.3,48.0,29.83,WSW,252,4.0,10.0,32,0.00,,,0.00,weatherlink.com 1.10,2013-09-06 18:40:00,
2013-09-06 16:55:00,-999.0,-99.9,0.00,North,-999,-999.0,-999.0,-999,0.00,,,0.00,weatherlink.com 1.10,2013-09-06 22:55:00,
2013-09-06 17:07:00,65.8,50.0,29.76,ESE,102,7.0,14.0,57,0.00,,,0.00,weatherlink.com 1.10,2013-09-06 23:07:00,
2013-09-06 17:22:00,65.9,50.0,29.78,SE,135,0.0,6.0,57,0.00,,,0.00,weatherlink.com 1.10,2013-09-06 23:22:00,
2013-09-06 17:37:00,67.9,47.0,29.78,SSE,149,9.0,17.0,48,0.00,,,0.00,weatherlink.com 1.10,2013-09-06 23:37:00,
2013-09-06 17:52:00,65.4,48.0,29.78,SE,141,8.0,19.0,54,0.00,,,0.00,weatherlink.com 1.10,2013-09-06 23:52:00,
2013-09-06 18:07:00,65.8,48.0,29.81,SSE,165,4.0,17.0,53,0.00,,,0.00,weatherlink.com 1.10,2013-09-07 00:07:00,
2013-09-06 18:22:00,65.1,50.0,29.81,ESE,105,6.0,11.0,58,0.00,,,0.00,weatherlink.com 1.10,2013-09-07 00:22:00,
2013-09-06 18:37:00,62.7,50.0,29.75,NE,45,10.0,14.0,64,0.02,,,0.02,weatherlink.com 1.10,2013-09-07 00:37:00,
2013-09-06 18:52:00,62.7,49.0,29.77,ENE,74,8.0,18.0,62,0.02,,,0.02,weatherlink.com 1.10,2013-09-07 00:52:00,
2013-09-06 19:07:00,63.1,50.0,29.81,West,281,8.0,8.0,63,0.03,,,0.03,weatherlink.com 1.10,2013-09-07 01:07:00,
2013-09-06 19:22:00,63.2,51.0,29.83,NNE,13,4.0,13.0,64,0.03,,,0.03,weatherlink.com 1.10,2013-09-07 01:22:00,
2013-09-06 19:37:00,62.3,52.0,29.84,NNE,20,5.0,13.0,68,0.01,,,0.03,weatherlink.com 1.10,2013-09-07 01:37:00,
2013-09-06 19:53:00,61.4,52.0,29.84,NNE,30,0.0,9.0,70,0.01,,,0.03,weatherlink.com 1.10,2013-09-07 01:53:00,
2013-09-06 20:08:00,60.3,51.0,29.84,NNE,18,11.0,16.0,72,0.00,,,0.03,weatherlink.com 1.10,2013-09-07 02:08:00,
2013-09-06 20:23:00,59.9,52.0,29.84,NE,49,6.0,15.0,74,0.00,,,0.03,weatherlink.com 1.10,2013-09-07 02:23:00,
2013-09-06 20:38:00,58.1,51.0,29.86,NNE,28,2.0,13.0,78,0.00,,,0.03,weatherlink.com 1.10,2013-09-07 02:38:00,
2013-09-06 20:53:00,58.5,51.0,29.87,NE,35,3.0,10.0,77,0.00,,,0.03,weatherlink.com 1.10,2013-09-07 02:53:00,
2013-09-06 21:08:00,58.1,51.0,29.88,ENE,59,6.0,13.0,77,0.00,,,0.03,weatherlink.com 1.10,2013-09-07 03:08:00,
2013-09-06 21:23:00,58.1,51.0,29.89,NE,56,2.0,9.0,77,0.00,,,0.03,weatherlink.com 1.10,2013-09-07 03:23:00,
2013-09-06 21:38:00,58.2,52.0,29.88,NE,39,5.0,9.0,79,0.00,,,0.03,weatherlink.com 1.10,2013-09-07 03:38:00,
2013-09-06 21:53:00,56.5,51.0,29.87,NNE,27,5.0,12.0,83,0.01,,,0.04,weatherlink.com 1.10,2013-09-07 03:53:00,
2013-09-06 22:09:00,56.9,51.0,29.86,NE,49,11.0,19.0,81,0.01,,,0.04,weatherlink.com 1.10,2013-09-07 04:09:00,
2013-09-06 22:23:00,56.9,51.0,29.87,ESE,114,3.0,8.0,81,0.01,,,0.04,weatherlink.com 1.10,2013-09-07 04:23:00,
2013-09-06 22:38:00,58.7,51.0,29.88,SE,134,0.0,0.0,76,0.01,,,0.04,weatherlink.com 1.10,2013-09-07 04:38:00,
2013-09-06 22:53:00,58.2,51.0,29.88,SE,134,0.0,0.0,77,0.00,,,0.04,weatherlink.com 1.10,2013-09-07 04:53:00,
2013-09-06 23:08:00,57.6,50.0,29.88,North,352,0.0,0.0,77,0.00,,,0.04,weatherlink.com 1.10,2013-09-07 05:08:00,
2013-09-06 23:23:00,57.0,50.0,29.88,North,352,0.0,0.0,78,0.00,,,0.04,weatherlink.com 1.10,2013-09-07 05:23:00,
2013-09-06 23:38:00,56.9,50.0,29.88,NNE,12,2.0,9.0,77,0.00,,,0.04,weatherlink.com 1.10,2013-09-07 05:38:00,
2013-09-06 23:53:00,56.6,50.0,29.88,NE,40,1.0,7.0,78,0.00,,,0.04,weatherlink.com 1.10,2013-09-07 05:53:00,